createdAt,value
2023-05-06T00:07:16.579Z,98152.25
2023-05-06T00:09:42.854Z,98157.53
2023-05-06T00:52:38.557Z,98150.53
2023-05-06T00:55:05.223Z,98159.16
2023-05-06T00:57:31.588Z,98146.56
2023-05-06T00:59:57.959Z,98148.19
2023-05-06T01:02:28.491Z,98147.72
2023-05-06T01:07:55.897Z,98154.94
2023-05-06T01:10:44.770Z,98155.53
2023-05-06T01:35:16.899Z,98144.56
2023-05-06T02:04:36.545Z,98135.09
2023-05-06T02:07:03.096Z,98127.53
2023-05-06T06:12:48.603Z,98193.56
2023-05-06T06:55:37.571Z,98208.19
2023-05-06T06:58:03.877Z,98212.22
2023-05-06T07:00:30.166Z,98210.19
2023-05-06T07:02:56.494Z,98217.88
2023-05-06T07:05:22.818Z,98213.59
2023-05-06T07:18:57.698Z,98220.06
2023-05-06T07:40:17.406Z,98224.56
2023-05-06T07:56:06.717Z,98245.19
2023-05-06T08:11:55.400Z,98250.72
2023-05-06T08:14:21.701Z,98246.63
2023-05-06T08:22:18.475Z,98250.38
2023-05-06T08:24:45.877Z,98250.91
2023-05-06T08:37:53.423Z,98252.63
2023-05-06T08:42:57.127Z,98271.34
2023-05-06T08:48:05.801Z,98256.03
2023-05-06T09:01:19.655Z,98246.59
2023-05-06T09:09:02.555Z,98247.13
2023-05-06T09:11:29.961Z,98241.41
2023-05-06T09:14:13.696Z,98258.91
2023-05-06T09:16:42.892Z,98247.47
2023-05-06T09:27:32.013Z,98240.78
2023-05-06T09:35:15.525Z,98246.53
2023-05-06T09:37:41.828Z,98251.69
2023-05-06T09:53:38.159Z,98246.81
2023-05-06T09:56:07.972Z,98235.91
2023-05-06T10:01:13.325Z,98241.75
2023-05-06T10:09:07.402Z,98239.81
2023-05-06T10:11:34.188Z,98235.25
2023-05-06T10:14:01.527Z,98229.00
2023-05-06T10:16:29.051Z,98225.88
2023-05-06T10:18:55.839Z,98220.19
2023-05-06T10:29:24.628Z,98218.00
2023-05-06T10:58:50.742Z,98192.66
2023-05-06T11:01:20.703Z,98195.72
2023-05-06T11:48:17.732Z,98201.88
2023-05-06T11:50:48.292Z,98201.84
2023-05-06T11:53:19.310Z,98193.41
2023-05-06T11:55:46.803Z,98195.06
2023-05-06T11:58:19.557Z,98198.03
2023-05-06T12:01:04.374Z,98191.88
2023-05-06T12:08:45.597Z,98195.84
2023-05-06T12:11:11.973Z,98191.41
2023-05-06T12:13:38.275Z,98193.19
2023-05-06T12:21:29.881Z,98187.28
2023-05-06T12:23:58.467Z,98179.94
2023-05-06T12:26:25.308Z,98191.31
2023-05-06T12:34:08.641Z,98185.66
2023-05-06T12:36:43.098Z,98183.53
2023-05-06T12:39:09.446Z,98183.09
2023-05-06T12:41:46.304Z,98176.13
2023-05-06T12:44:40.958Z,98169.09
2023-05-06T12:58:36.543Z,98173.28
2023-05-06T13:01:03.563Z,98162.78
2023-05-06T13:03:29.967Z,98167.75
2023-05-06T13:05:56.342Z,98164.22
2023-05-06T13:08:22.628Z,98168.59
2023-05-06T13:10:48.936Z,98171.06
2023-05-06T13:13:15.398Z,98164.97
2023-05-06T13:15:42.432Z,98164.59
2023-05-06T13:18:09.351Z,98166.28
2023-05-06T13:20:35.783Z,98163.94
2023-05-06T13:23:02.088Z,98163.34
2023-05-06T13:25:28.397Z,98163.25
2023-05-06T13:27:54.674Z,98161.59
2023-05-06T13:30:21.009Z,98158.13
2023-05-06T13:32:47.321Z,98158.69
2023-05-06T13:35:13.793Z,98146.13
2023-05-06T13:37:40.090Z,98147.09
2023-05-06T13:40:06.862Z,98152.03
2023-05-06T13:42:33.175Z,98150.91
2023-05-06T13:44:59.569Z,98148.09
2023-05-06T13:47:25.855Z,98151.34
2023-05-06T13:49:52.168Z,98147.63
2023-05-06T13:52:18.475Z,98146.97
2023-05-06T13:54:44.746Z,98139.13
2023-05-06T13:57:11.122Z,98144.88
2023-05-06T13:59:37.848Z,98128.97
2023-05-06T14:02:07.040Z,98133.91
2023-05-06T14:04:35.161Z,98127.47
2023-05-06T14:07:01.549Z,98123.69
2023-05-06T14:09:27.816Z,98121.28
2023-05-06T14:11:54.129Z,98122.19
2023-05-06T14:14:20.430Z,98117.47
2023-05-06T14:16:46.724Z,98120.38
2023-05-06T14:19:13.006Z,98106.03
2023-05-06T14:21:39.304Z,98099.38
2023-05-06T14:24:07.554Z,98096.63
2023-05-06T14:26:34.300Z,98103.59
2023-05-06T14:29:00.597Z,98104.19
2023-05-06T14:31:27.007Z,98102.03
2023-05-06T14:33:53.289Z,98105.63
2023-05-06T14:36:19.906Z,98103.00
2023-05-06T14:38:46.224Z,98099.78
2023-05-06T14:41:12.539Z,98101.25
2023-05-06T14:46:28.551Z,98110.47
2023-05-06T14:51:31.058Z,98101.28
2023-05-06T14:53:57.346Z,98095.69
2023-05-06T14:56:23.803Z,98099.00
2023-05-06T14:58:50.098Z,98091.25
2023-05-06T15:01:16.500Z,98095.94
2023-05-06T15:03:42.810Z,98098.78
2023-05-06T15:06:09.151Z,98092.78
2023-05-06T15:08:35.482Z,98094.16
2023-05-06T15:11:03.713Z,98091.84
2023-05-06T15:13:30.458Z,98088.84
2023-05-06T15:15:56.764Z,98084.38
2023-05-06T15:18:23.048Z,98081.47
2023-05-06T15:20:49.316Z,98076.88
2023-05-06T15:23:15.612Z,98079.69
2023-05-06T15:25:42.185Z,98077.50
2023-05-06T15:28:08.732Z,98080.22
2023-05-06T15:33:10.412Z,98072.06
2023-05-06T15:35:36.773Z,98070.97
2023-05-06T15:38:03.843Z,98077.41
2023-05-06T15:40:30.356Z,98070.25
2023-05-06T15:42:58.241Z,98078.81
2023-05-06T15:45:24.656Z,98075.88
2023-05-06T15:47:51.315Z,98080.13
2023-05-06T15:50:32.557Z,98077.53
2023-05-06T15:52:59.563Z,98080.94
2023-05-06T15:55:26.552Z,98086.09
2023-05-06T15:57:53.372Z,98082.25
2023-05-06T16:00:20.000Z,98078.84
2023-05-06T16:02:46.573Z,98076.81
2023-05-06T16:05:13.169Z,98074.25
2023-05-06T16:07:39.619Z,98074.63
2023-05-06T16:10:06.600Z,98084.34
2023-05-06T16:12:32.895Z,98082.63
2023-05-06T16:15:00.351Z,98078.41
2023-05-06T16:17:26.755Z,98074.50
2023-05-06T16:19:53.160Z,98078.31
2023-05-06T16:22:19.448Z,98083.97
2023-05-06T16:24:45.757Z,98074.94
2023-05-06T16:27:12.140Z,98075.16
2023-05-06T16:29:38.581Z,98076.38
2023-05-06T16:32:05.054Z,98082.72
2023-05-06T16:34:31.378Z,98076.38
2023-05-06T16:36:57.701Z,98070.06
2023-05-06T16:39:24.273Z,98074.75
2023-05-06T16:41:50.598Z,98073.50
2023-05-06T16:44:16.897Z,98076.63
2023-05-06T16:46:43.204Z,98074.94
2023-05-06T16:49:09.546Z,98066.34
2023-05-06T16:51:36.200Z,98072.03
2023-05-06T16:54:02.503Z,98070.44
2023-05-06T16:56:43.853Z,98068.06
2023-05-06T16:59:15.051Z,98073.13
2023-05-06T17:01:41.343Z,98068.50
2023-05-06T17:04:07.677Z,98066.19
2023-05-06T17:06:34.024Z,98069.13
2023-05-06T17:09:00.417Z,98068.78
2023-05-06T17:11:26.905Z,98068.94
2023-05-06T17:13:54.186Z,98066.06
2023-05-06T17:16:20.504Z,98073.94
2023-05-06T17:18:47.383Z,98068.50
2023-05-06T17:21:13.579Z,98067.06
2023-05-06T17:23:39.988Z,98055.16
2023-05-06T17:26:10.009Z,98057.41
2023-05-06T17:28:36.788Z,98067.25
2023-05-06T17:31:03.121Z,98059.34
2023-05-06T17:33:29.412Z,98063.00
2023-05-06T17:35:55.699Z,98060.03
2023-05-06T17:38:21.985Z,98062.44
2023-05-06T17:40:48.276Z,98054.84
2023-05-06T17:43:14.601Z,98060.88
2023-05-06T17:45:40.893Z,98057.78
2023-05-06T17:48:07.228Z,98060.53
2023-05-06T17:50:33.539Z,98063.59
2023-05-06T17:52:59.815Z,98069.25
2023-05-06T17:55:26.143Z,98070.75
2023-05-06T17:57:52.411Z,98069.94
2023-05-06T18:00:18.978Z,98068.91
2023-05-06T18:02:48.725Z,98071.91
2023-05-06T18:05:16.535Z,98079.16
2023-05-06T18:07:42.835Z,98077.16
2023-05-06T18:10:09.759Z,98078.22
2023-05-06T18:12:36.579Z,98075.97
2023-05-06T18:15:03.182Z,98075.34
2023-05-06T18:17:29.555Z,98078.22
2023-05-06T18:19:55.875Z,98083.50
2023-05-06T18:22:22.190Z,98080.66
2023-05-06T18:24:48.659Z,98083.50
2023-05-06T18:27:14.967Z,98081.47
2023-05-06T18:29:41.398Z,98084.03
2023-05-06T18:32:07.828Z,98083.38
2023-05-06T18:34:34.400Z,98091.38
2023-05-06T18:37:00.692Z,98083.91
2023-05-06T18:39:26.996Z,98095.88
2023-05-06T18:41:53.413Z,98091.63
2023-05-06T18:44:19.699Z,98090.03
2023-05-06T18:46:45.975Z,98088.72
2023-05-06T18:49:12.316Z,98101.41
2023-05-06T18:51:38.622Z,98101.94
2023-05-06T18:54:04.996Z,98105.44
2023-05-06T18:56:31.440Z,98111.38
2023-05-06T18:58:57.766Z,98105.94
2023-05-06T19:01:24.285Z,98102.41
2023-05-06T19:03:50.975Z,98116.41
2023-05-06T19:06:17.448Z,98122.28
2023-05-06T19:08:43.733Z,98122.50
2023-05-06T19:11:17.408Z,98117.28
2023-05-06T19:13:43.924Z,98118.06
2023-05-06T19:16:10.935Z,98114.25
2023-05-06T19:18:37.450Z,98113.66
2023-05-06T19:21:03.976Z,98114.97
2023-05-06T19:23:32.127Z,98105.25
2023-05-06T19:25:58.478Z,98111.38
2023-05-06T19:28:24.782Z,98113.78
2023-05-06T19:30:51.122Z,98110.25
2023-05-06T19:33:17.542Z,98116.16
2023-05-06T19:35:43.880Z,98118.31
2023-05-06T19:38:10.192Z,98125.59
2023-05-06T19:40:36.493Z,98128.53
2023-05-06T19:43:03.045Z,98126.66
2023-05-06T19:45:33.703Z,98124.78
2023-05-06T19:48:00.920Z,98122.09
2023-05-06T19:50:27.499Z,98128.25
2023-05-06T19:52:54.153Z,98124.16
2023-05-06T19:57:56.508Z,98126.53
2023-05-06T20:00:23.409Z,98120.03
2023-05-06T20:02:49.920Z,98127.25
2023-05-06T20:05:16.471Z,98122.63
2023-05-06T20:07:42.861Z,98121.25
2023-05-06T20:10:09.781Z,98121.50
2023-05-06T20:12:36.194Z,98121.75
2023-05-06T20:15:02.589Z,98116.63
2023-05-06T20:17:29.165Z,98122.00
2023-05-06T20:19:55.474Z,98119.31
2023-05-06T20:22:21.764Z,98122.28
2023-05-06T20:24:48.068Z,98121.72
2023-05-06T21:37:04.868Z,98150.25
